Time;durP1;ratioP1;P1;durP2;ratioP2;P2;SDS_P1;SDS_P2;PMS_P1;PMS_P2;Temp;Humidity;BMP_temperature;BMP_pressure;BME280_temperature;BME280_humidity;BME280_pressure;Samples;Min_cycle;Max_cycle;Signal;HPM_P1;HPM_P2
2022/10/05 00:22:42;;;;;;;4.65;1.42;;;17.80;59.80;;;;;;5050142;27;20903;-71
2022/10/05 00:25:16;;;;;;;3.78;1.50;;;17.90;60.20;;;;;;5041533;28;20025;-71
2022/10/05 00:27:45;;;;;;;2.60;1.42;;;17.90;60.10;;;;;;5046578;28;20036;-72
2022/10/05 00:30:17;;;;;;;3.40;2.05;;;17.90;59.90;;;;;;5044413;28;20120;-72
2022/10/05 00:32:44;;;;;;;5.88;1.67;;;18.00;59.90;;;;;;5044524;28;20033;-71
2022/10/05 00:35:13;;;;;;;11.07;2.15;;;18.00;60.00;;;;;;5049193;28;20039;-73
2022/10/05 00:37:40;;;;;;;22.80;2.80;;;18.00;60.00;;;;;;5049194;28;20104;-72
2022/10/05 00:40:37;;;;;;;5.70;1.90;;;17.90;59.80;;;;;;5050587;28;20100;-71
2022/10/05 00:43:21;;;;;;;8.80;2.03;;;18.00;61.30;;;;;;5048549;28;20021;-74
2022/10/05 00:46:23;;;;;;;25.30;3.25;;;18.00;61.30;;;;;;5048310;28;20041;-71
2022/10/05 00:49:37;;;;;;;31.17;4.13;;;18.00;61.80;;;;;;5041228;28;20051;-72
2022/10/05 00:52:19;;;;;;;10.80;1.95;;;17.90;61.70;;;;;;5036190;28;20075;-74
2022/10/05 00:55:00;;;;;;;4.32;1.70;;;17.90;61.40;;;;;;5044235;28;20107;-74
2022/10/05 00:57:55;;;;;;;6.72;2.05;;;17.90;61.20;;;;;;5045946;28;20031;-73
2022/10/05 01:00:25;;;;;;;5.25;2.17;;;17.90;61.00;;;;;;5047475;28;20105;-71
2022/10/05 01:03:24;;;;;;;4.85;3.35;;;17.90;61.00;;;;;;5047939;28;20562;-72
2022/10/05 01:06:17;;;;;;;4.50;1.65;;;17.80;61.10;;;;;;5044296;28;20439;-73
2022/10/05 01:08:49;;;;;;;5.57;1.75;;;17.80;61.00;;;;;;5023427;28;20029;-72
2022/10/05 01:11:32;;;;;;;3.65;1.95;;;17.80;61.00;;;;;;5045856;28;20470;-74
2022/10/05 01:14:24;;;;;;;2.35;1.50;;;17.80;60.80;;;;;;5045544;28;20483;-72
2022/10/05 01:17:02;;;;;;;4.63;1.80;;;17.80;60.80;;;;;;5043646;28;20033;-73
2022/10/05 01:19:37;;;;;;;3.25;1.45;;;17.80;60.70;;;;;;5043630;28;20446;-72
2022/10/05 01:22:10;;;;;;;6.20;2.03;;;17.80;60.90;;;;;;5040872;28;20042;-73
2022/10/05 01:24:36;;;;;;;7.97;2.47;;;17.70;61.10;;;;;;5027907;28;20022;-72
2022/10/05 01:27:29;;;;;;;5.63;2.35;;;17.70;61.10;;;;;;5029360;28;20412;-73
2022/10/05 01:30:14;;;;;;;5.82;2.55;;;17.80;61.10;;;;;;5026201;28;20460;-74
2022/10/05 01:33:07;;;;;;;4.93;2.10;;;17.70;61.00;;;;;;5030610;28;20018;-72
2022/10/05 01:35:48;;;;;;;6.63;2.47;;;17.70;61.00;;;;;;5030022;28;20017;-72
2022/10/05 01:38:51;;;;;;;8.73;3.78;;;17.70;60.90;;;;;;5030274;28;20427;-73
2022/10/05 01:41:30;;;;;;;4.75;2.53;;;17.70;61.00;;;;;;5030749;28;20112;-72
2022/10/05 01:44:35;;;;;;;8.45;2.60;;;17.70;61.00;;;;;;5034464;28;20033;-73
2022/10/05 01:47:20;;;;;;;9.05;2.70;;;17.60;61.00;;;;;;4970891;28;20057;-73
2022/10/05 01:50:05;;;;;;;15.40;3.08;;;17.60;60.90;;;;;;5026939;28;20041;-72
2022/10/05 01:52:58;;;;;;;9.05;3.85;;;17.60;61.70;;;;;;5026055;28;20036;-73
2022/10/05 01:55:44;;;;;;;8.10;3.42;;;17.60;61.50;;;;;;5030977;28;20109;-73
2022/10/05 01:58:47;;;;;;;9.23;3.05;;;17.60;61.40;;;;;;5016826;28;20426;-72
2022/10/05 02:01:40;;;;;;;8.70;4.65;;;17.50;61.10;;;;;;5027373;28;20032;-74
2022/10/05 02:04:36;;;;;;;7.15;2.55;;;17.50;61.10;;;;;;5032750;28;20025;-72
2022/10/05 02:07:09;;;;;;;6.75;2.95;;;17.50;61.10;;;;;;5029709;28;20095;-72
2022/10/05 02:09:47;;;;;;;5.75;2.80;;;17.50;61.40;;;;;;5031730;28;20027;-73
2022/10/05 02:12:19;;;;;;;5.90;2.08;;;17.50;61.30;;;;;;5032646;28;20699;-72
2022/10/05 02:14:51;;;;;;;5.65;1.98;;;17.50;61.20;;;;;;5031478;28;20024;-73
2022/10/05 02:17:23;;;;;;;4.72;2.33;;;17.50;61.20;;;;;;5031898;28;20060;-73
2022/10/05 02:20:01;;;;;;;6.53;1.83;;;17.40;61.10;;;;;;5032297;28;20057;-75
2022/10/05 02:22:42;;;;;;;8.52;2.25;;;17.40;61.20;;;;;;5028154;28;20037;-75
2022/10/05 02:25:15;;;;;;;7.85;2.72;;;17.40;61.40;;;;;;5036298;28;20509;-73
2022/10/05 02:28:16;;;;;;;5.28;2.40;;;17.40;61.40;;;;;;5034639;28;20391;-75
2022/10/05 02:30:50;;;;;;;9.48;2.60;;;17.40;61.40;;;;;;4968425;28;20541;-74
2022/10/05 02:33:28;;;;;;;3.58;2.40;;;17.30;61.50;;;;;;5038120;28;20021;-72
2022/10/05 02:36:01;;;;;;;3.72;2.38;;;17.30;61.70;;;;;;5038805;28;20020;-73
2022/10/05 02:38:50;;;;;;;5.05;2.88;;;17.30;61.80;;;;;;5032467;28;20012;-72
2022/10/05 02:42:05;;;;;;;6.32;2.70;;;17.30;61.80;;;;;;5034611;28;20026;-72
2022/10/05 02:44:55;;;;;;;5.05;2.80;;;17.30;61.80;;;;;;5031858;28;20036;-72
2022/10/05 02:47:40;;;;;;;6.93;4.35;;;17.30;62.00;;;;;;5034529;28;20220;-73
2022/10/05 02:50:30;;;;;;;17.27;4.05;;;17.30;62.10;;;;;;5035736;28;20033;-73
2022/10/05 02:53:30;;;;;;;4.85;2.60;;;17.30;62.60;;;;;;5032530;28;20080;-73
2022/10/05 02:56:18;;;;;;;10.82;3.97;;;17.20;62.40;;;;;;5012351;28;20079;-71
2022/10/05 02:59:23;;;;;;;5.13;3.38;;;17.20;62.70;;;;;;5031646;28;20026;-72
2022/10/05 03:02:11;;;;;;;4.22;3.20;;;17.10;62.20;;;;;;5020882;28;20071;-72
2022/10/05 03:05:07;;;;;;;5.70;3.45;;;17.10;61.90;;;;;;5034341;28;20020;-72
2022/10/05 03:08:15;;;;;;;7.18;3.55;;;17.10;61.70;;;;;;5037019;28;20021;-74
2022/10/05 03:11:00;;;;;;;5.57;2.97;;;17.10;61.50;;;;;;5031642;28;20044;-72
2022/10/05 03:13:49;;;;;;;7.53;3.85;;;17.00;61.40;;;;;;5030540;28;20060;-72
2022/10/05 03:16:31;;;;;;;7.22;3.97;;;17.00;61.30;;;;;;4993651;28;20721;-73
2022/10/05 03:19:16;;;;;;;9.48;3.90;;;17.00;61.40;;;;;;5031578;28;20464;-72
2022/10/05 03:22:06;;;;;;;3.47;3.03;;;16.90;61.40;;;;;;5034079;28;20045;-71
2022/10/05 03:24:55;;;;;;;10.02;3.55;;;16.90;61.40;;;;;;5029149;28;20029;-72
2022/10/05 03:27:28;;;;;;;4.80;3.05;;;16.90;61.60;;;;;;5029818;28;20112;-74
2022/10/05 03:30:04;;;;;;;5.60;2.38;;;16.90;61.90;;;;;;5034485;28;20041;-71
2022/10/05 03:32:53;;;;;;;7.80;2.85;;;16.80;62.00;;;;;;5032170;28;20048;-71
2022/10/05 03:35:44;;;;;;;4.65;2.00;;;16.80;62.20;;;;;;5003046;28;20516;-72
2022/10/05 03:38:35;;;;;;;8.35;3.08;;;16.80;62.20;;;;;;5033110;28;20023;-72
2022/10/05 03:41:23;;;;;;;5.72;3.17;;;16.80;62.30;;;;;;5033903;28;20083;-72
2022/10/05 03:44:06;;;;;;;6.25;3.17;;;16.70;62.40;;;;;;5028233;28;20026;-73
2022/10/05 03:46:56;;;;;;;7.25;4.40;;;16.70;62.50;;;;;;5038703;28;20033;-72
2022/10/05 03:49:42;;;;;;;10.25;3.60;;;16.70;62.50;;;;;;5030998;28;20025;-74
2022/10/05 03:52:12;;;;;;;11.68;3.72;;;16.70;62.40;;;;;;5035051;28;20036;-71
2022/10/05 03:54:46;;;;;;;11.85;4.20;;;16.70;62.40;;;;;;5037598;28;20660;-71
2022/10/05 03:57:23;;;;;;;21.52;7.85;;;16.60;62.30;;;;;;5032446;28;20021;-67
2022/10/05 04:00:04;;;;;;;16.58;8.85;;;16.60;62.70;;;;;;5036527;28;20134;-70
2022/10/05 04:02:35;;;;;;;9.25;5.80;;;16.60;62.80;;;;;;5034994;28;20080;-67
2022/10/05 04:05:17;;;;;;;11.85;3.20;;;16.70;62.70;;;;;;5033111;28;20053;-69
2022/10/05 04:07:55;;;;;;;9.98;3.35;;;16.60;62.30;;;;;;5014210;28;20411;-67
2022/10/05 04:10:28;;;;;;;29.77;17.05;;;16.40;62.60;;;;;;5030966;28;20034;-68
2022/10/05 04:13:06;;;;;;;40.70;27.10;;;16.30;63.90;;;;;;5032651;28;20017;-67
2022/10/05 04:15:44;;;;;;;26.70;16.33;;;16.30;64.40;;;;;;5033280;28;20049;-68
2022/10/05 04:18:33;;;;;;;14.30;8.23;;;16.40;64.40;;;;;;5037698;28;20435;-68
2022/10/05 04:21:12;;;;;;;8.82;4.05;;;16.40;64.30;;;;;;5033454;28;20045;-69
2022/10/05 04:24:02;;;;;;;9.35;2.55;;;16.40;64.20;;;;;;5030318;28;20022;-70
2022/10/05 04:27:10;;;;;;;7.70;2.63;;;16.40;64.20;;;;;;5029176;28;20032;-70
2022/10/05 04:29:58;;;;;;;10.38;2.65;;;16.40;64.80;;;;;;5012840;28;20037;-73
2022/10/05 04:32:37;;;;;;;9.68;4.05;;;16.40;64.20;;;;;;5032852;28;20025;-69
2022/10/05 04:35:31;;;;;;;12.52;4.25;;;16.40;63.30;;;;;;5032080;28;20021;-74
2022/10/05 04:38:35;;;;;;;10.95;4.13;;;16.30;63.10;;;;;;5030629;28;20495;-69
2022/10/05 04:41:24;;;;;;;7.35;2.58;;;16.40;63.10;;;;;;5011337;28;20495;-74
2022/10/05 04:44:12;;;;;;;5.60;3.00;;;16.40;63.10;;;;;;5028676;28;20024;-73
2022/10/05 04:47:04;;;;;;;4.70;2.47;;;16.30;63.20;;;;;;5030299;28;20021;-75
2022/10/05 04:49:40;;;;;;;3.95;2.00;;;16.30;63.20;;;;;;5029935;28;20037;-71
2022/10/05 04:52:24;;;;;;;4.15;2.28;;;16.30;63.30;;;;;;5036060;28;20388;-76
2022/10/05 04:55:07;;;;;;;10.15;4.35;;;16.30;63.40;;;;;;5028435;28;20030;-73
2022/10/05 04:57:44;;;;;;;7.35;2.75;;;16.20;63.50;;;;;;5031062;28;20044;-68
2022/10/05 05:00:46;;;;;;;7.38;3.58;;;16.30;63.70;;;;;;5035749;28;20087;-70
2022/10/05 05:03:38;;;;;;;6.90;1.83;;;16.30;63.80;;;;;;5033340;28;20029;-72
2022/10/05 05:06:13;;;;;;;3.88;1.35;;;16.30;64.00;;;;;;5035745;28;20431;-74
2022/10/05 05:09:42;;;;;;;10.23;1.83;;;16.30;64.10;;;;;;5039722;28;20480;-71
2022/10/05 05:12:24;;;;;;;5.50;2.60;;;16.20;64.30;;;;;;4981936;28;20038;-70
2022/10/05 05:15:08;;;;;;;13.55;3.75;;;16.30;64.50;;;;;;4983865;28;20022;-67
2022/10/05 05:18:06;;;;;;;14.30;3.67;;;16.30;64.70;;;;;;5022229;28;20048;-73
2022/10/05 05:20:51;;;;;;;9.10;4.47;;;16.30;65.80;;;;;;5030077;28;20283;-73
2022/10/05 05:24:03;;;;;;;16.03;5.37;;;16.30;66.70;;;;;;5034474;28;20030;-69
2022/10/05 05:26:29;;;;;;;11.95;4.43;;;16.30;66.70;;;;;;4976697;28;20025;-68
2022/10/05 05:29:12;;;;;;;22.83;6.50;;;16.30;66.70;;;;;;4978787;28;20433;-67
2022/10/05 05:32:09;;;;;;;15.18;5.72;;;16.30;66.80;;;;;;4994436;28;20404;-70
2022/10/05 05:35:02;;;;;;;13.90;6.03;;;16.40;67.00;;;;;;5035423;28;20017;-67
2022/10/05 05:37:35;;;;;;;28.50;6.80;;;16.30;67.10;;;;;;5033014;28;20515;-68
2022/10/05 05:40:10;;;;;;;22.52;6.45;;;16.40;67.90;;;;;;5035193;28;20350;-69
2022/10/05 05:42:57;;;;;;;15.80;5.95;;;16.40;67.60;;;;;;5036578;28;20018;-67
2022/10/05 05:45:45;;;;;;;13.98;4.60;;;16.40;67.50;;;;;;5035978;28;20492;-69
2022/10/05 05:48:32;;;;;;;13.93;6.45;;;16.50;67.60;;;;;;5036931;28;20036;-70
2022/10/05 05:51:22;;;;;;;13.00;6.47;;;16.50;67.60;;;;;;5036400;28;20079;-74
2022/10/05 05:54:16;;;;;;;19.10;5.97;;;16.50;67.70;;;;;;5032870;28;20048;-72
2022/10/05 05:57:24;;;;;;;11.15;4.40;;;16.60;67.60;;;;;;5033795;28;20064;-68
2022/10/05 06:00:04;;;;;;;22.35;5.30;;;16.60;67.50;;;;;;5032462;28;20030;-72
2022/10/05 06:03:00;;;;;;;11.00;4.63;;;16.60;67.60;;;;;;5033161;28;20497;-75
2022/10/05 06:05:54;;;;;;;9.32;4.93;;;16.60;67.40;;;;;;5035487;28;20033;-69
2022/10/05 06:08:57;;;;;;;10.85;5.53;;;16.70;67.30;;;;;;5033440;28;20068;-68
2022/10/05 08:26:16;;;;;;;3.10;1.00;;;18.20;62.70;;;;;;5025721;27;20959;-69
2022/10/05 08:28:47;;;;;;;4.55;0.82;;;18.80;61.80;;;;;;4999949;28;20050;-69
2022/10/05 08:31:24;;;;;;;4.20;1.17;;;18.80;61.40;;;;;;5000617;28;20026;-71
2022/10/05 08:34:18;;;;;;;5.38;1.15;;;18.90;61.80;;;;;;5002951;28;20030;-69
2022/10/05 08:37:17;;;;;;;5.75;1.23;;;19.10;62.40;;;;;;5004130;28;20030;-70
2022/10/05 08:40:21;;;;;;;6.78;1.52;;;19.20;61.50;;;;;;5005219;28;20350;-69
2022/10/05 08:43:22;;;;;;;4.40;1.58;;;19.20;60.50;;;;;;5006439;28;20037;-69
2022/10/05 08:45:56;;;;;;;6.47;1.27;;;19.20;60.50;;;;;;5003064;28;20084;-69
2022/10/05 08:48:35;;;;;;;7.00;2.35;;;19.30;60.10;;;;;;5003841;28;20026;-69
2022/10/05 08:51:16;;;;;;;10.77;2.28;;;19.30;61.10;;;;;;5002202;28;20383;-69
2022/10/05 08:54:24;;;;;;;8.02;1.45;;;19.30;61.00;;;;;;5009245;28;20117;-70
2022/10/05 08:57:20;;;;;;;3.28;1.63;;;19.40;61.00;;;;;;5003551;28;20484;-68
2022/10/05 09:00:11;;;;;;;11.75;2.38;;;19.40;60.80;;;;;;5001983;28;20505;-68
2022/10/05 09:03:29;;;;;;;13.85;2.45;;;19.40;60.50;;;;;;5007474;28;20037;-69
2022/10/05 09:06:13;;;;;;;7.22;1.23;;;19.50;60.90;;;;;;4984894;28;20030;-68
2022/10/05 09:08:51;;;;;;;6.22;1.33;;;19.50;60.70;;;;;;4982002;28;20027;-69
2022/10/05 09:11:25;;;;;;;5.57;1.13;;;19.60;61.10;;;;;;4997847;28;20034;-68
2022/10/05 09:14:03;;;;;;;2.78;1.40;;;19.60;60.80;;;;;;5002084;28;20034;-68
2022/10/05 09:17:03;;;;;;;2.45;0.80;;;19.70;59.90;;;;;;5009456;28;20100;-69
2022/10/05 09:19:54;;;;;;;3.53;0.93;;;19.70;59.70;;;;;;5001174;28;20057;-68
2022/10/05 09:22:44;;;;;;;4.90;1.13;;;19.80;59.50;;;;;;5003675;28;20545;-68
2022/10/05 09:25:24;;;;;;;2.00;1.10;;;19.80;59.00;;;;;;4989500;28;20108;-68
2022/10/05 09:27:55;;;;;;;3.85;1.88;;;19.90;58.90;;;;;;4990931;28;20026;-69
2022/10/05 09:30:45;;;;;;;2.65;1.60;;;19.90;58.60;;;;;;4992749;28;20023;-68
2022/10/05 09:33:24;;;;;;;2.85;1.10;;;20.00;58.00;;;;;;4987001;28;20117;-70
2022/10/05 09:36:04;;;;;;;3.95;1.33;;;20.00;57.60;;;;;;4992603;28;20026;-68
2022/10/05 09:39:14;;;;;;;3.22;2.10;;;20.10;57.60;;;;;;4992109;28;20030;-68
2022/10/05 09:42:04;;;;;;;2.90;1.20;;;20.10;57.50;;;;;;4985552;28;20386;-68
2022/10/05 09:44:39;;;;;;;9.07;1.88;;;20.20;57.30;;;;;;4993177;28;20019;-68
2022/10/05 09:47:08;;;;;;;6.60;1.40;;;20.20;57.20;;;;;;4994259;28;20023;-68
2022/10/05 09:50:02;;;;;;;4.45;1.35;;;20.20;57.40;;;;;;4994132;28;20022;-68
2022/10/05 09:52:44;;;;;;;7.05;1.05;;;20.30;57.70;;;;;;4992204;28;20027;-68
2022/10/05 09:55:33;;;;;;;8.48;0.98;;;20.30;58.10;;;;;;4985798;28;20035;-68
2022/10/05 09:58:37;;;;;;;4.00;1.00;;;20.30;58.10;;;;;;4989734;28;20026;-68
2022/10/05 10:01:25;;;;;;;4.38;0.95;;;20.20;58.20;;;;;;4989724;28;20030;-68
2022/10/05 10:04:12;;;;;;;6.13;0.95;;;20.30;58.60;;;;;;4995615;28;20050;-70
2022/10/05 10:07:03;;;;;;;5.60;1.50;;;20.30;58.80;;;;;;4996267;28;20030;-70
2022/10/05 10:10:11;;;;;;;2.13;1.30;;;20.30;59.00;;;;;;4993209;28;20039;-68
2022/10/05 10:12:55;;;;;;;4.05;0.88;;;20.30;59.80;;;;;;4994513;28;20018;-68
2022/10/05 10:15:44;;;;;;;3.42;1.10;;;20.40;59.30;;;;;;4988990;28;20045;-68
2022/10/05 10:18:25;;;;;;;1.33;0.80;;;20.40;59.50;;;;;;4989471;28;20079;-68
2022/10/05 10:21:16;;;;;;;5.43;1.25;;;20.40;59.50;;;;;;4994940;28;20033;-70
2022/10/05 10:23:53;;;;;;;4.95;1.38;;;20.50;59.90;;;;;;4991686;28;20038;-68
2022/10/05 10:26:38;;;;;;;2.92;1.02;;;20.50;60.20;;;;;;4991135;28;20029;-68
2022/10/05 10:29:23;;;;;;;7.32;1.60;;;20.50;60.50;;;;;;4990988;28;20037;-69
2022/10/05 10:32:05;;;;;;;3.60;1.45;;;20.60;61.10;;;;;;4990622;28;20397;-68
2022/10/05 10:34:41;;;;;;;5.10;1.13;;;20.60;61.10;;;;;;4992865;28;20050;-69
2022/10/05 10:37:38;;;;;;;1.95;0.63;;;20.60;61.10;;;;;;4984558;28;20026;-68
2022/10/05 10:40:36;;;;;;;3.90;1.10;;;20.60;60.90;;;;;;4988915;28;20097;-69
2022/10/05 10:43:21;;;;;;;3.33;0.90;;;20.70;61.20;;;;;;4992289;28;20463;-68
2022/10/05 10:46:13;;;;;;;3.95;1.30;;;20.80;61.60;;;;;;4990536;28;20068;-68
2022/10/05 10:48:39;;;;;;;1.80;0.77;;;20.80;61.90;;;;;;4990544;28;20026;-68
2022/10/05 10:51:21;;;;;;;2.83;1.00;;;20.90;61.70;;;;;;4988490;28;20054;-68
2022/10/05 10:54:20;;;;;;;5.82;0.98;;;20.90;62.10;;;;;;4989662;28;20030;-74
2022/10/05 10:57:07;;;;;;;3.47;0.90;;;20.90;61.50;;;;;;5001671;28;20022;-69
2022/10/05 10:59:46;;;;;;;3.20;0.90;;;21.00;61.40;;;;;;4993551;28;20026;-67
2022/10/05 11:02:45;;;;;;;1.45;0.82;;;21.00;61.00;;;;;;4990821;28;20030;-67
2022/10/05 11:05:36;;;;;;;2.63;0.95;;;21.00;60.50;;;;;;4991313;28;20546;-67
2022/10/05 11:08:31;;;;;;;1.80;0.68;;;21.00;60.90;;;;;;4986231;28;20030;-66
2022/10/05 11:11:07;;;;;;;4.43;1.17;;;21.00;61.10;;;;;;4993309;28;20370;-68
2022/10/05 11:13:46;;;;;;;4.25;1.13;;;21.00;61.30;;;;;;4990357;28;20034;-68
2022/10/05 11:16:19;;;;;;;6.72;1.20;;;21.00;61.40;;;;;;4991682;28;20034;-68
2022/10/05 11:19:20;;;;;;;4.38;2.22;;;20.90;61.60;;;;;;4990209;28;20030;-70
2022/10/05 11:22:20;;;;;;;0.85;0.43;;;20.90;61.80;;;;;;4992992;28;20112;-68
2022/10/05 11:25:07;;;;;;;2.65;0.80;;;20.90;61.50;;;;;;4996679;28;20058;-68
2022/10/05 11:27:53;;;;;;;5.70;0.80;;;20.90;61.30;;;;;;4993787;28;20035;-68
2022/10/05 11:30:21;;;;;;;9.40;1.15;;;21.00;61.40;;;;;;4990378;28;20019;-69
2022/10/05 11:33:15;;;;;;;3.65;0.95;;;21.00;61.60;;;;;;4986992;28;20114;-68
2022/10/05 11:35:58;;;;;;;2.45;0.80;;;21.00;61.30;;;;;;4989896;28;20508;-68
2022/10/05 11:38:47;;;;;;;3.80;2.35;;;21.10;61.10;;;;;;4983188;28;20115;-70
2022/10/05 11:41:30;;;;;;;5.47;0.98;;;21.20;60.90;;;;;;4979453;28;20023;-69
2022/10/05 11:44:18;;;;;;;3.35;0.50;;;21.30;60.70;;;;;;4990654;28;20124;-69
2022/10/05 11:46:54;;;;;;;2.63;0.70;;;21.30;60.30;;;;;;4995980;28;20057;-68
2022/10/05 11:49:38;;;;;;;1.52;0.50;;;21.40;59.20;;;;;;4983666;28;20035;-69
2022/10/05 11:52:30;;;;;;;2.17;0.50;;;21.50;59.20;;;;;;4989133;28;20054;-69
2022/10/05 11:55:16;;;;;;;1.63;0.90;;;21.50;59.20;;;;;;4987194;28;20034;-69
2022/10/05 11:58:00;;;;;;;0.65;0.30;;;21.70;59.30;;;;;;4986065;28;20034;-68
2022/10/05 12:00:33;;;;;;;4.88;0.70;;;21.70;59.30;;;;;;4991068;28;20023;-68
2022/10/05 12:03:17;;;;;;;3.10;0.55;;;21.70;58.90;;;;;;4986504;28;20019;-70
2022/10/05 12:05:56;;;;;;;1.80;0.70;;;21.80;59.10;;;;;;4993107;28;20025;-74
2022/10/05 12:08:28;;;;;;;16.50;1.48;;;21.80;59.50;;;;;;4986497;28;20023;-68
2022/10/05 12:11:18;;;;;;;4.38;1.45;;;21.90;59.50;;;;;;4994463;28;20054;-68
2022/10/05 12:14:03;;;;;;;4.80;0.98;;;21.90;60.00;;;;;;4987618;28;20038;-69
2022/10/05 12:16:58;;;;;;;2.28;0.82;;;22.00;58.90;;;;;;4986634;28;20018;-68
2022/10/05 12:19:40;;;;;;;1.52;0.60;;;22.00;59.30;;;;;;4978879;28;20039;-68
2022/10/05 12:22:21;;;;;;;12.90;1.23;;;22.00;58.30;;;;;;4986972;28;20027;-69
2022/10/05 12:25:14;;;;;;;1.33;0.63;;;22.00;58.10;;;;;;4991510;28;20050;-69
2022/10/05 12:27:48;;;;;;;3.95;0.70;;;22.00;58.30;;;;;;4990583;28;20106;-69
2022/10/05 12:30:17;;;;;;;1.17;0.43;;;22.10;58.20;;;;;;4989160;28;20069;-69
2022/10/05 12:32:53;;;;;;;1.98;0.60;;;22.10;57.80;;;;;;4988109;28;20022;-70
2022/10/05 12:35:58;;;;;;;1.55;0.60;;;22.10;58.20;;;;;;4984716;28;20502;-68
2022/10/05 12:38:46;;;;;;;2.10;0.70;;;22.10;59.10;;;;;;4989776;28;20080;-71
2022/10/05 12:41:26;;;;;;;1.60;0.55;;;22.10;59.00;;;;;;4986276;28;20839;-68
2022/10/05 12:44:08;;;;;;;2.42;0.60;;;22.20;59.00;;;;;;4990931;28;20025;-67
2022/10/05 12:46:47;;;;;;;3.17;0.50;;;22.20;59.30;;;;;;4988649;28;20010;-69
2022/10/05 12:49:43;;;;;;;1.15;0.60;;;22.20;59.20;;;;;;4988229;28;20042;-70
2022/10/05 12:52:27;;;;;;;2.78;1.08;;;22.20;58.30;;;;;;4995560;28;20041;-68
2022/10/05 12:55:26;;;;;;;13.23;1.57;;;22.30;58.10;;;;;;4988353;28;20132;-74
2022/10/05 12:58:17;;;;;;;1.95;0.65;;;22.20;57.90;;;;;;4992655;28;20109;-68
2022/10/05 13:00:57;;;;;;;1.40;0.75;;;22.30;58.80;;;;;;4993517;28;20337;-69
2022/10/05 13:03:35;;;;;;;1.17;0.73;;;22.30;58.60;;;;;;4993723;28;20025;-69
2022/10/05 13:06:28;;;;;;;4.85;0.70;;;22.30;58.40;;;;;;4995844;28;20058;-68
2022/10/05 13:09:14;;;;;;;2.20;0.70;;;22.30;58.10;;;;;;4990688;28;20030;-68
2022/10/05 13:11:43;;;;;;;1.52;0.45;;;22.30;58.20;;;;;;4994218;28;20073;-69
2022/10/05 13:14:20;;;;;;;2.30;0.60;;;22.30;58.00;;;;;;4997062;28;20124;-70
2022/10/05 13:17:21;;;;;;;2.65;0.93;;;22.40;57.40;;;;;;4992095;28;20023;-68
2022/10/05 13:19:56;;;;;;;0.47;0.47;;;22.40;57.10;;;;;;4991764;28;20038;-68
2022/10/05 13:22:34;;;;;;;;;;;22.40;57.10;;;;;;4993339;28;20022;-69
2022/10/05 13:25:17;;;;;;;5.85;0.80;;;22.40;57.50;;;;;;4993269;28;19918;-69
2022/10/05 13:28:08;;;;;;;5.18;0.73;;;22.40;57.60;;;;;;4994125;28;20030;-69
2022/10/05 13:30:37;;;;;;;2.42;0.75;;;22.40;56.90;;;;;;4992233;28;20030;-68
2022/10/05 13:33:16;;;;;;;3.97;0.80;;;22.40;56.90;;;;;;4997722;28;20029;-68
2022/10/05 13:35:57;;;;;;;1.02;0.80;;;22.40;56.90;;;;;;4992894;28;20053;-69
2022/10/05 13:39:07;;;;;;;2.78;0.52;;;22.30;56.50;;;;;;4994447;28;20014;-69
2022/10/05 13:41:44;;;;;;;1.05;0.50;;;22.30;56.30;;;;;;4994608;28;20389;-69
2022/10/05 13:44:29;;;;;;;2.25;0.63;;;22.20;56.60;;;;;;4991342;28;20027;-68
2022/10/05 13:47:03;;;;;;;1.65;0.73;;;22.20;57.00;;;;;;4999231;28;20397;-68
2022/10/05 13:49:53;;;;;;;3.95;0.82;;;22.20;57.30;;;;;;4987307;28;20031;-68
2022/10/05 13:52:44;;;;;;;1.40;0.77;;;22.10;57.10;;;;;;4988639;28;20516;-68
2022/10/05 13:55:34;;;;;;;4.95;1.00;;;22.10;57.30;;;;;;4989957;28;20037;-69
2022/10/05 13:58:13;;;;;;;1.80;0.50;;;22.00;57.80;;;;;;4987869;28;20098;-69
2022/10/05 14:01:21;;;;;;;6.30;2.33;;;21.90;58.20;;;;;;4990955;28;20018;-69
2022/10/05 16:19:22;;;;;;;4.25;1.42;;;20.80;61.50;;;;;;5134312;27;20441;-70
2022/10/05 16:22:12;;;;;;;4.00;2.45;;;20.80;62.90;;;;;;5104802;28;20066;-69
2022/10/05 16:24:58;;;;;;;6.13;1.02;;;20.90;62.70;;;;;;5099367;28;20032;-68
2022/10/05 16:28:07;;;;;;;3.80;1.42;;;20.90;62.60;;;;;;5107435;28;20032;-69
2022/10/05 16:31:07;;;;;;;2.58;0.90;;;20.90;62.30;;;;;;5100133;28;20534;-68
2022/10/05 16:33:40;;;;;;;6.60;1.00;;;20.90;62.00;;;;;;5103571;28;20541;-69
2022/10/05 16:36:21;;;;;;;6.18;2.78;;;20.90;61.80;;;;;;5105565;28;20081;-69
2022/10/05 16:39:21;;;;;;;6.28;4.30;;;20.90;61.90;;;;;;5099885;28;20069;-71
2022/10/05 16:41:57;;;;;;;4.53;2.38;;;20.90;61.50;;;;;;5103595;28;20550;-68
2022/10/05 16:44:41;;;;;;;1.92;1.20;;;20.80;61.50;;;;;;5108308;28;20331;-68
2022/10/05 16:47:33;;;;;;;18.90;2.92;;;20.80;61.60;;;;;;5102763;28;20852;-70
2022/10/05 16:50:03;;;;;;;12.00;2.75;;;20.80;63.40;;;;;;5103935;28;20479;-68
2022/10/05 16:52:32;;;;;;;13.65;2.58;;;20.80;65.20;;;;;;5104211;28;20102;-69
2022/10/05 16:55:06;;;;;;;6.43;2.30;;;20.80;65.50;;;;;;5102184;28;20012;-69
2022/10/05 16:57:42;;;;;;;3.47;2.08;;;20.70;65.00;;;;;;5102518;28;20092;-70
2022/10/05 17:00:36;;;;;;;2.40;2.20;;;20.70;64.60;;;;;;5102830;28;20028;-70
2022/10/05 17:03:49;;;;;;;4.00;2.13;;;20.70;64.30;;;;;;5099902;28;20024;-71
2022/10/05 17:06:52;;;;;;;7.10;1.90;;;20.60;64.30;;;;;;5055848;28;20103;-71
2022/10/05 17:09:43;;;;;;;6.20;1.65;;;20.60;64.30;;;;;;5099674;28;20046;-72
2022/10/05 17:12:41;;;;;;;9.07;1.92;;;20.60;64.40;;;;;;5096121;28;20091;-70
2022/10/05 17:15:38;;;;;;;1.60;1.13;;;20.60;64.40;;;;;;5094768;28;20031;-72
2022/10/05 17:18:26;;;;;;;4.93;2.17;;;20.50;64.50;;;;;;5096853;28;20103;-68
2022/10/05 17:20:55;;;;;;;8.18;1.55;;;20.50;64.40;;;;;;5088442;28;20028;-70
2022/10/05 17:23:36;;;;;;;2.47;1.50;;;20.50;64.50;;;;;;5094803;28;20102;-71
2022/10/05 17:26:20;;;;;;;4.72;2.00;;;20.50;64.90;;;;;;5087684;28;20031;-69
2022/10/05 17:29:27;;;;;;;5.63;1.90;;;20.50;65.30;;;;;;5087553;28;20113;-72
2022/10/05 17:32:11;;;;;;;5.30;2.25;;;20.50;65.20;;;;;;5087283;28;20036;-71
2022/10/05 17:35:01;;;;;;;3.08;2.08;;;20.40;65.20;;;;;;5084287;28;20387;-70
2022/10/05 17:37:34;;;;;;;6.50;2.50;;;20.40;65.30;;;;;;5093022;28;20146;-71
2022/10/05 17:40:37;;;;;;;5.53;2.55;;;20.40;65.60;;;;;;5092917;28;20063;-72
2022/10/05 17:43:16;;;;;;;9.25;2.90;;;20.40;65.90;;;;;;5080133;28;20029;-71
2022/10/05 17:45:42;;;;;;;7.97;2.10;;;20.40;66.40;;;;;;5087974;28;20012;-72
2022/10/05 17:48:29;;;;;;;10.45;3.00;;;20.30;66.70;;;;;;5091910;28;20437;-71
2022/10/05 17:56:30;;;;;;;5.93;3.10;;;20.30;68.00;;;;;;5088523;28;20062;-72
2022/10/05 17:59:05;;;;;;;9.50;2.22;;;20.30;67.40;;;;;;5088360;28;20756;-71
2022/10/05 18:01:33;;;;;;;;;;;20.30;67.90;;;;;;5094858;28;20462;-72
2022/10/05 18:04:12;;;;;;;3.42;1.10;;;20.20;68.90;;;;;;5092038;28;19911;-71
2022/10/05 18:07:15;;;;;;;13.07;3.00;;;20.20;69.00;;;;;;5083009;28;20231;-70
2022/10/05 18:10:20;;;;;;;12.32;4.30;;;20.20;69.50;;;;;;5085441;28;20111;-70
2022/10/05 18:12:58;;;;;;;12.88;6.97;;;20.20;69.00;;;;;;5066383;28;20207;-69
2022/10/05 18:15:25;;;;;;;5.10;4.47;;;20.20;69.00;;;;;;5085380;28;20024;-69
2022/10/05 18:18:39;;;;;;;6.93;3.60;;;20.20;68.60;;;;;;5106085;27;20054;-69
2022/10/05 18:21:14;;;;;;;4.32;2.33;;;20.20;68.80;;;;;;5093220;28;20076;-70
2022/10/05 18:24:00;;;;;;;;;;;20.10;67.90;;;;;;5083940;28;20115;-71
2022/10/05 18:26:45;;;;;;;3.55;1.42;;;20.10;68.10;;;;;;5088214;28;20324;-71
2022/10/05 18:30:01;;;;;;;4.63;1.75;;;20.10;68.10;;;;;;5085640;28;20564;-69
2022/10/05 18:32:41;;;;;;;9.95;2.03;;;20.00;67.80;;;;;;5065231;28;20745;-69
2022/10/05 18:35:30;;;;;;;35.33;12.05;;;20.00;67.90;;;;;;5090663;28;20039;-69
2022/10/05 18:38:23;;;;;;;25.25;10.18;;;20.00;69.20;;;;;;5091913;28;20027;-72
2022/10/05 18:40:58;;;;;;;13.43;8.90;;;20.00;70.20;;;;;;5090787;28;20081;-70
2022/10/05 18:43:36;;;;;;;18.50;6.97;;;20.00;70.30;;;;;;5091106;28;20493;-72
2022/10/05 18:46:06;;;;;;;10.00;4.90;;;20.00;70.20;;;;;;5088964;28;20115;-72
2022/10/05 18:48:58;;;;;;;39.17;6.13;;;19.90;70.10;;;;;;5084813;28;20046;-72
2022/10/05 18:51:51;;;;;;;9.77;2.95;;;19.90;70.20;;;;;;5088777;28;20024;-71
2022/10/05 18:54:39;;;;;;;11.00;2.38;;;19.90;70.70;;;;;;5087231;28;20459;-69
2022/10/05 18:57:44;;;;;;;10.25;2.58;;;19.90;71.00;;;;;;5090611;28;20024;-69
2022/10/05 19:00:22;;;;;;;28.05;2.55;;;19.90;71.00;;;;;;5087817;28;20036;-72
2022/10/05 19:02:59;;;;;;;5.50;2.50;;;19.90;70.90;;;;;;5085929;28;20017;-72
2022/10/05 19:05:31;;;;;;;2.63;1.33;;;19.90;71.10;;;;;;5086076;28;20070;-69
2022/10/05 19:08:09;;;;;;;2.75;1.30;;;19.90;71.00;;;;;;5096060;28;20036;-69
2022/10/05 19:10:44;;;;;;;3.25;1.42;;;19.90;70.90;;;;;;5087654;28;20038;-69
2022/10/05 19:13:28;;;;;;;8.35;1.73;;;19.80;70.90;;;;;;5091861;28;20479;-72
2022/10/05 19:16:07;;;;;;;3.43;1.30;;;19.80;71.00;;;;;;5086324;28;20024;-70
2022/10/05 19:18:59;;;;;;;8.88;1.92;;;19.80;71.10;;;;;;5089595;28;20043;-69